Terminal Aerodrome Forecast
Issued by NWS

Home | Current Version | Previous Version | Text Only | Print | Product List | Glossary On
Versions: 1 2 3 4 5 6 7 8 9 10 11 12
000
FTUS44 KOUN 261120
TAFPNC
TAF
KPNC 261120Z 2612/2712 17010KT P6SM FEW250
     FM261900 20010G20KT P6SM SCT090
     FM270100 19012KT P6SM BKN070=

USA.gov is the U.S. government's official web portal to all federal, state and local government web resources and services.